createdAt,value
2023-01-22T00:01:00.915Z,5.67
2023-01-22T00:03:27.901Z,5.70
2023-01-22T00:05:54.899Z,8.63
2023-01-22T00:08:21.966Z,5.47
2023-01-22T00:10:50.598Z,6.27
2023-01-22T00:13:17.966Z,8.57
2023-01-22T00:15:44.991Z,5.00
2023-01-22T00:18:12.008Z,5.47
2023-01-22T00:20:40.816Z,7.30
2023-01-22T00:23:08.493Z,6.00
2023-01-22T00:25:35.414Z,7.07
2023-01-22T00:28:02.345Z,9.13
2023-01-22T00:30:29.340Z,5.30
2023-01-22T00:32:56.495Z,8.20
2023-01-22T00:35:23.687Z,5.63
2023-01-22T00:37:50.668Z,5.70
2023-01-22T00:40:18.891Z,7.17
2023-01-22T00:42:46.103Z,5.03
2023-01-22T00:45:13.986Z,9.50
2023-01-22T00:47:41.237Z,9.73
2023-01-22T00:50:09.020Z,5.23
2023-01-22T00:52:37.735Z,4.50
2023-01-22T00:55:05.666Z,4.50
2023-01-22T00:57:33.035Z,4.20
2023-01-22T00:59:59.927Z,4.57
2023-01-22T01:02:26.872Z,4.67
2023-01-22T01:04:53.867Z,4.33
2023-01-22T01:07:20.797Z,4.17
2023-01-22T01:09:47.717Z,4.33
2023-01-22T01:12:14.622Z,4.97
2023-01-22T01:14:41.568Z,3.80
2023-01-22T01:17:08.472Z,3.90
2023-01-22T01:19:35.372Z,4.50
2023-01-22T01:22:02.277Z,4.00
2023-01-22T01:24:29.245Z,4.60
2023-01-22T01:26:56.342Z,3.83
2023-01-22T01:29:23.276Z,3.97
2023-01-22T01:31:53.216Z,3.90
2023-01-22T01:34:20.354Z,7.90
2023-01-22T01:36:49.379Z,3.90
2023-01-22T01:39:17.351Z,3.87
2023-01-22T01:41:44.367Z,3.70
2023-01-22T01:44:16.150Z,3.90
2023-01-22T01:46:54.335Z,4.17
2023-01-22T01:49:33.534Z,4.73
2023-01-22T01:52:05.995Z,4.47
2023-01-22T01:54:33.087Z,4.63
2023-01-22T01:57:07.312Z,4.47
2023-01-22T01:59:35.588Z,6.20
2023-01-22T02:02:03.634Z,4.60
2023-01-22T02:04:31.045Z,4.07
2023-01-22T02:06:57.984Z,3.50
2023-01-22T02:09:24.969Z,3.60
2023-01-22T02:11:53.309Z,6.80
2023-01-22T02:14:26.339Z,3.57
2023-01-22T02:17:14.148Z,3.27
2023-01-22T02:19:42.056Z,3.33
2023-01-22T02:22:19.207Z,3.27
2023-01-22T02:24:46.281Z,3.10
2023-01-22T02:27:13.271Z,3.50
2023-01-22T02:29:40.556Z,4.10
2023-01-22T02:32:07.663Z,3.77
2023-01-22T02:34:34.586Z,3.37
2023-01-22T02:37:01.603Z,2.90
2023-01-22T02:39:28.515Z,3.30
2023-01-22T02:41:55.654Z,3.10
2023-01-22T02:44:24.666Z,3.43
2023-01-22T02:46:51.624Z,3.63
2023-01-22T02:49:18.572Z,3.37
2023-01-22T02:51:45.477Z,2.70
2023-01-22T02:54:12.450Z,2.90
2023-01-22T02:56:39.602Z,2.80
2023-01-22T02:59:06.622Z,3.00
2023-01-22T03:01:33.597Z,2.67
2023-01-22T03:04:11.996Z,3.33
2023-01-22T03:06:41.573Z,3.20
2023-01-22T03:09:10.099Z,3.30
2023-01-22T03:11:42.079Z,3.10
2023-01-22T03:14:27.748Z,3.37
2023-01-22T03:17:14.452Z,2.90
2023-01-22T03:20:00.057Z,3.10
2023-01-22T03:22:27.610Z,3.20
2023-01-22T03:24:55.105Z,2.60
2023-01-22T03:27:26.731Z,3.27
2023-01-22T03:29:53.829Z,2.70
2023-01-22T03:32:21.491Z,3.07
2023-01-22T03:34:48.811Z,3.13
2023-01-22T03:37:16.175Z,2.87
2023-01-22T03:39:43.370Z,3.10
2023-01-22T03:42:10.290Z,2.53
2023-01-22T03:44:37.221Z,2.97
2023-01-22T03:47:04.210Z,3.33
2023-01-22T03:49:31.138Z,3.00
2023-01-22T03:51:58.185Z,2.73
2023-01-22T03:54:25.134Z,2.80
2023-01-22T03:56:52.070Z,2.73
2023-01-22T03:59:19.097Z,2.70
2023-01-22T04:01:46.016Z,3.00
2023-01-22T04:04:12.994Z,3.03
2023-01-22T04:06:39.966Z,3.03
2023-01-22T04:09:06.852Z,2.90
2023-01-22T04:11:33.837Z,2.80
2023-01-22T04:14:00.715Z,2.80
2023-01-22T04:16:27.737Z,2.43
2023-01-22T04:18:54.662Z,2.93
2023-01-22T04:21:21.656Z,2.87
2023-01-22T04:23:48.579Z,2.93
2023-01-22T04:26:15.498Z,2.90
2023-01-22T04:28:42.481Z,2.93
2023-01-22T04:31:10.142Z,2.80
2023-01-22T04:33:37.141Z,2.30
2023-01-22T04:36:04.210Z,3.00
2023-01-22T04:38:31.183Z,2.73
2023-01-22T04:40:58.150Z,2.60
2023-01-22T04:43:25.102Z,3.03
2023-01-22T04:45:52.069Z,3.33
2023-01-22T04:48:18.994Z,2.70
2023-01-22T04:50:46.575Z,2.60
2023-01-22T04:53:13.597Z,2.27
2023-01-22T04:55:41.871Z,2.50
2023-01-22T04:58:09.418Z,3.23
2023-01-22T05:00:36.492Z,2.27
2023-01-22T05:03:04.606Z,2.30
2023-01-22T05:05:33.107Z,2.23
2023-01-22T05:08:00.224Z,2.50
2023-01-22T05:10:27.180Z,2.90
2023-01-22T05:12:54.156Z,2.20
2023-01-22T05:15:25.192Z,3.17
2023-01-22T05:17:53.192Z,2.63
2023-01-22T05:20:20.913Z,2.00
2023-01-22T05:22:48.272Z,2.13
2023-01-22T05:25:15.229Z,2.30
2023-01-22T05:27:42.120Z,1.70
2023-01-22T05:30:10.525Z,1.83
2023-01-22T05:32:38.024Z,2.20
2023-01-22T05:35:06.081Z,2.10
2023-01-22T05:37:33.170Z,2.00
2023-01-22T05:40:00.124Z,2.07
2023-01-22T05:42:27.026Z,2.27
2023-01-22T05:44:53.911Z,2.10
2023-01-22T05:47:20.955Z,1.93
2023-01-22T05:49:48.202Z,2.57
2023-01-22T05:52:15.149Z,2.20
2023-01-22T05:54:42.128Z,2.70
2023-01-22T05:57:09.081Z,2.30
2023-01-22T05:59:36.049Z,2.20
2023-01-22T06:02:03.894Z,2.20
2023-01-22T06:04:30.893Z,2.00
2023-01-22T06:06:57.792Z,2.00
2023-01-22T06:09:25.096Z,1.87
2023-01-22T06:11:52.102Z,2.00
2023-01-22T06:14:19.139Z,1.80
2023-01-22T06:16:46.272Z,2.10
2023-01-22T06:19:13.186Z,1.90
2023-01-22T06:21:40.818Z,2.30
2023-01-22T06:24:07.845Z,1.70
2023-01-22T06:26:34.956Z,5.77
2023-01-22T06:29:01.874Z,2.67
2023-01-22T06:31:28.975Z,2.50
2023-01-22T06:33:55.962Z,2.80
2023-01-22T06:36:26.682Z,2.60
2023-01-22T06:38:53.694Z,3.20
2023-01-22T06:41:20.743Z,2.53
2023-01-22T06:43:47.615Z,2.43
2023-01-22T06:46:14.757Z,2.30
2023-01-22T06:48:43.607Z,2.90
2023-01-22T06:51:13.456Z,2.50
2023-01-22T06:53:40.395Z,3.20
2023-01-22T06:56:07.913Z,2.73
2023-01-22T06:58:34.821Z,3.00
2023-01-22T07:01:04.155Z,3.10
2023-01-22T07:03:31.081Z,3.23
2023-01-22T07:06:00.149Z,3.70
2023-01-22T07:08:31.974Z,3.00
2023-01-22T07:10:59.477Z,3.37
2023-01-22T07:13:26.582Z,2.93
2023-01-22T07:15:53.639Z,2.40
2023-01-22T07:18:23.684Z,2.93
2023-01-22T07:20:50.662Z,2.40
2023-01-22T07:23:17.926Z,3.00
2023-01-22T07:25:45.402Z,2.57
2023-01-22T07:28:15.009Z,2.57
2023-01-22T07:30:43.792Z,4.67
2023-01-22T07:33:11.617Z,2.73
2023-01-22T07:35:38.921Z,2.53
2023-01-22T07:38:06.737Z,2.53
2023-01-22T07:40:34.457Z,2.20
2023-01-22T07:43:06.545Z,2.23
2023-01-22T07:45:34.584Z,2.27
2023-01-22T07:48:02.464Z,3.10
2023-01-22T07:50:31.665Z,25.63
2023-01-22T07:53:02.549Z,25.47
2023-01-22T07:55:34.010Z,7.33
2023-01-22T07:58:03.754Z,5.10
2023-01-22T08:00:31.736Z,4.13
2023-01-22T08:02:58.751Z,4.80
2023-01-22T08:05:26.006Z,5.63
2023-01-22T08:07:52.999Z,6.23
2023-01-22T08:10:20.443Z,4.33
2023-01-22T08:12:47.676Z,3.87
2023-01-22T08:15:15.349Z,3.53
2023-01-22T08:17:42.534Z,3.30
2023-01-22T08:20:10.220Z,3.30
2023-01-22T08:22:37.296Z,3.70
2023-01-22T08:25:04.502Z,3.83
2023-01-22T08:27:31.793Z,3.60
2023-01-22T08:29:58.754Z,5.20
2023-01-22T08:32:25.938Z,4.93
2023-01-22T08:34:54.259Z,5.97
2023-01-22T08:37:22.465Z,5.20
2023-01-22T08:39:49.695Z,4.80
2023-01-22T08:42:17.180Z,4.60
2023-01-22T08:44:44.083Z,3.90
2023-01-22T08:47:11.463Z,5.90
2023-01-22T08:49:38.391Z,6.50
2023-01-22T08:52:05.589Z,6.13
2023-01-22T08:54:32.609Z,6.83
2023-01-22T08:57:00.129Z,5.13
2023-01-22T08:59:28.029Z,4.97
2023-01-22T09:01:58.567Z,4.87
2023-01-22T09:04:25.652Z,4.53
2023-01-22T09:06:52.679Z,6.27
2023-01-22T09:09:19.571Z,5.77
2023-01-22T09:11:46.833Z,8.07
2023-01-22T09:14:14.254Z,7.17
2023-01-22T09:16:41.201Z,6.93
2023-01-22T09:19:08.126Z,7.30
2023-01-22T09:21:37.233Z,6.83
2023-01-22T09:24:05.487Z,7.90
2023-01-22T09:26:32.975Z,6.37
2023-01-22T09:29:05.634Z,7.47
2023-01-22T09:31:36.618Z,6.53
2023-01-22T09:34:04.611Z,6.93
2023-01-22T09:36:31.892Z,7.63
2023-01-22T09:38:58.911Z,6.43
2023-01-22T09:41:38.511Z,5.47
2023-01-22T09:44:33.535Z,5.40
2023-01-22T09:47:15.144Z,6.73
2023-01-22T09:50:00.716Z,6.60
2023-01-22T09:52:31.124Z,6.37
2023-01-22T09:54:58.386Z,5.87
2023-01-22T09:57:31.597Z,5.53
2023-01-22T09:59:59.388Z,6.30
2023-01-22T10:02:37.131Z,6.80
2023-01-22T10:05:17.107Z,7.17
2023-01-22T10:07:51.007Z,6.87
2023-01-22T10:10:24.596Z,5.97
2023-01-22T10:13:07.757Z,5.90
2023-01-22T10:15:34.647Z,5.50
2023-01-22T10:18:20.317Z,5.20
2023-01-22T10:20:48.528Z,5.17
2023-01-22T10:23:21.906Z,7.17
2023-01-22T10:25:49.181Z,7.67
2023-01-22T10:28:23.353Z,8.77
2023-01-22T10:30:50.662Z,6.83
2023-01-22T10:33:23.220Z,6.80
2023-01-22T10:35:53.991Z,6.00
2023-01-22T10:38:22.430Z,5.00
2023-01-22T10:40:57.101Z,4.33
2023-01-22T10:43:32.503Z,4.40
2023-01-22T10:46:15.547Z,3.97
2023-01-22T10:48:42.498Z,4.33
2023-01-22T10:51:14.619Z,4.00
2023-01-22T10:53:52.119Z,3.87
2023-01-22T10:56:30.189Z,4.33
2023-01-22T10:59:00.125Z,4.00
2023-01-22T11:01:36.230Z,4.43
2023-01-22T11:04:14.594Z,4.33
2023-01-22T11:06:47.994Z,4.40
2023-01-22T11:09:22.891Z,3.90
2023-01-22T11:12:07.576Z,4.83
2023-01-22T11:14:36.744Z,4.73
2023-01-22T11:17:13.655Z,5.07
2023-01-22T11:19:46.236Z,5.10
2023-01-22T11:22:28.707Z,4.97
2023-01-22T11:24:55.713Z,4.83
2023-01-22T11:27:25.570Z,4.10
2023-01-22T11:30:21.124Z,4.60
2023-01-22T11:33:16.893Z,4.80
2023-01-22T11:35:53.057Z,5.73
2023-01-22T11:38:38.208Z,4.77
2023-01-22T11:41:19.475Z,4.40
2023-01-22T11:44:12.099Z,4.50
2023-01-22T11:46:50.574Z,4.67
2023-01-22T11:49:59.207Z,4.50
2023-01-22T11:52:46.614Z,5.20
2023-01-22T11:55:16.466Z,7.00
2023-01-22T11:57:54.777Z,5.50
2023-01-22T12:00:38.781Z,7.00
2023-01-22T12:03:12.697Z,9.40
2023-01-22T12:06:13.453Z,9.03
2023-01-22T12:08:59.241Z,9.27
2023-01-22T12:11:37.725Z,12.63
2023-01-22T12:14:53.284Z,11.00
2023-01-22T12:17:52.792Z,9.67
2023-01-22T12:20:40.895Z,7.97
2023-01-22T12:23:18.096Z,6.07
2023-01-22T12:25:52.879Z,5.60
2023-01-22T12:28:23.619Z,6.20
2023-01-22T12:31:05.563Z,6.60
2023-01-22T12:33:38.917Z,6.80
2023-01-22T12:36:09.926Z,7.80
2023-01-22T12:39:06.169Z,8.03
2023-01-22T12:41:49.137Z,7.77
2023-01-22T12:44:54.924Z,7.60
2023-01-22T12:47:28.353Z,6.03
2023-01-22T12:49:55.263Z,6.23
2023-01-22T12:52:32.914Z,6.67
2023-01-22T12:55:01.287Z,6.20
2023-01-22T12:57:40.883Z,6.57
2023-01-22T13:00:34.648Z,7.27
2023-01-22T13:03:04.032Z,10.17
2023-01-22T13:05:30.888Z,7.70
2023-01-22T13:08:19.258Z,6.70
2023-01-22T13:11:03.178Z,5.87
2023-01-22T13:13:34.073Z,5.93
2023-01-22T13:16:05.375Z,7.27
2023-01-22T13:18:45.126Z,6.20
2023-01-22T13:21:15.688Z,6.30
2023-01-22T13:23:49.576Z,6.90
2023-01-22T13:26:18.193Z,12.93
2023-01-22T13:28:58.083Z,10.00
2023-01-22T13:31:46.539Z,7.30
2023-01-22T13:34:16.361Z,8.60
2023-01-22T13:36:48.421Z,9.73
2023-01-22T13:39:21.975Z,7.50
2023-01-22T13:41:51.549Z,14.23
2023-01-22T13:44:24.862Z,11.20
2023-01-22T13:46:52.747Z,10.40
2023-01-22T13:49:23.262Z,9.17
2023-01-22T13:51:52.770Z,7.77
2023-01-22T13:54:54.492Z,6.50
2023-01-22T13:57:22.272Z,5.80
2023-01-22T13:59:58.391Z,5.37
2023-01-22T14:02:31.991Z,5.63
2023-01-22T14:04:59.000Z,5.73
2023-01-22T14:07:35.196Z,7.60
2023-01-22T14:10:16.363Z,7.03
2023-01-22T14:12:43.503Z,6.77
2023-01-22T14:15:18.690Z,9.13
2023-01-22T14:17:47.553Z,7.67
2023-01-22T14:20:15.609Z,6.90
2023-01-22T14:22:45.012Z,7.43
2023-01-22T14:25:11.922Z,7.40
2023-01-22T14:27:47.873Z,6.70
2023-01-22T14:30:18.756Z,23.57
2023-01-22T14:32:48.942Z,29.43
2023-01-22T14:35:19.423Z,14.90
2023-01-22T14:37:57.071Z,8.83
2023-01-22T14:40:26.490Z,9.23
2023-01-22T14:43:01.398Z,8.20
2023-01-22T14:45:34.395Z,6.97
2023-01-22T14:48:01.481Z,6.30
2023-01-22T14:50:29.595Z,7.80
2023-01-22T14:52:59.070Z,8.73
2023-01-22T14:55:28.743Z,8.70
2023-01-22T14:57:57.660Z,9.30
2023-01-22T15:00:28.544Z,8.57
2023-01-22T15:02:57.374Z,8.57
2023-01-22T15:05:30.142Z,7.70
2023-01-22T15:08:01.535Z,8.33
2023-01-22T15:10:48.276Z,8.13
2023-01-22T15:13:22.782Z,6.10
2023-01-22T15:15:49.920Z,6.07
2023-01-22T15:18:16.878Z,5.60
2023-01-22T15:20:43.869Z,5.70
2023-01-22T15:23:10.900Z,5.47
2023-01-22T15:25:37.919Z,6.30
2023-01-22T15:28:05.147Z,5.50
2023-01-22T15:30:32.265Z,5.30
2023-01-22T15:33:00.525Z,5.37
2023-01-22T15:35:33.326Z,6.00
2023-01-22T15:38:05.262Z,5.00
2023-01-22T15:40:37.763Z,5.20
2023-01-22T15:43:05.337Z,5.87
2023-01-22T15:45:36.315Z,15.47
2023-01-22T15:48:03.682Z,8.37
2023-01-22T15:50:33.157Z,8.37
2023-01-22T15:53:00.133Z,7.03
2023-01-22T15:55:27.993Z,8.10
2023-01-22T15:57:59.620Z,7.57
2023-01-22T16:00:28.326Z,5.80
2023-01-22T16:02:55.649Z,5.60
2023-01-22T16:05:22.594Z,5.83
2023-01-22T16:07:52.256Z,6.17
2023-01-22T16:10:19.993Z,5.90
2023-01-22T16:12:47.338Z,5.83
2023-01-22T16:15:14.291Z,6.00
2023-01-22T16:17:42.571Z,6.50
2023-01-22T16:20:10.468Z,5.77
2023-01-22T16:22:37.432Z,5.97
2023-01-22T16:25:04.687Z,6.63
2023-01-22T16:27:31.602Z,6.43
2023-01-22T16:29:58.791Z,7.30
2023-01-22T16:32:25.933Z,6.83
2023-01-22T16:34:53.035Z,6.50
2023-01-22T16:37:19.994Z,6.90
2023-01-22T16:39:47.143Z,8.47
2023-01-22T16:42:14.055Z,9.37
2023-01-22T16:44:42.823Z,8.60
2023-01-22T16:47:09.820Z,7.50
2023-01-22T16:49:36.786Z,9.10
2023-01-22T16:52:21.386Z,7.93
2023-01-22T16:54:49.350Z,7.57
2023-01-22T16:57:16.465Z,7.30
2023-01-22T16:59:43.720Z,7.13
2023-01-22T17:02:15.884Z,6.50
2023-01-22T17:04:43.357Z,6.97
2023-01-22T17:07:20.458Z,5.83
2023-01-22T17:09:54.772Z,7.70
2023-01-22T17:12:21.678Z,5.80
2023-01-22T17:14:52.525Z,5.60
2023-01-22T17:17:19.610Z,6.43
2023-01-22T17:19:49.219Z,7.10
2023-01-22T17:22:16.223Z,7.20
2023-01-22T17:24:43.484Z,7.53
2023-01-22T17:27:14.238Z,6.37
2023-01-22T17:29:42.076Z,5.73
2023-01-22T17:32:09.074Z,6.53
2023-01-22T17:34:37.378Z,5.67
2023-01-22T17:37:09.414Z,6.93
2023-01-22T17:39:37.484Z,6.00
2023-01-22T17:42:04.837Z,6.10
2023-01-22T17:44:34.201Z,5.57
2023-01-22T17:47:02.799Z,5.87
2023-01-22T17:49:30.363Z,5.07
2023-01-22T17:51:57.596Z,5.70
2023-01-22T17:54:24.833Z,7.90
2023-01-22T17:56:53.166Z,9.73
2023-01-22T17:59:21.862Z,13.03
2023-01-22T18:01:50.475Z,10.67
2023-01-22T18:04:17.502Z,8.60
2023-01-22T18:06:44.720Z,6.40
2023-01-22T18:09:12.639Z,6.57
2023-01-22T18:11:40.849Z,6.10
2023-01-22T18:14:21.548Z,6.30
2023-01-22T18:16:49.806Z,5.47
2023-01-22T18:19:18.755Z,6.57
2023-01-22T18:21:45.907Z,7.67
2023-01-22T18:24:13.550Z,9.17
2023-01-22T18:26:41.463Z,6.90
2023-01-22T18:29:09.905Z,7.10
2023-01-22T18:31:38.256Z,7.80
2023-01-22T18:34:07.079Z,6.60
2023-01-22T18:36:36.835Z,5.93
2023-01-22T18:39:11.183Z,5.20
2023-01-22T18:41:40.129Z,5.40
2023-01-22T18:44:08.659Z,5.70
2023-01-22T18:46:36.987Z,5.10
2023-01-22T18:49:07.248Z,5.30
2023-01-22T18:51:34.598Z,6.67
2023-01-22T18:54:04.750Z,5.43
2023-01-22T18:56:32.361Z,5.63
2023-01-22T18:58:59.374Z,5.20
2023-01-22T19:01:28.857Z,5.50
2023-01-22T19:03:58.751Z,5.33
2023-01-22T19:06:30.457Z,4.93
2023-01-22T19:09:12.374Z,4.50
2023-01-22T19:11:42.102Z,5.43
2023-01-22T19:14:12.954Z,5.47
2023-01-22T19:16:39.894Z,5.70
2023-01-22T19:19:11.223Z,5.60
2023-01-22T19:21:47.591Z,5.50
2023-01-22T19:24:22.131Z,5.50
2023-01-22T19:26:51.289Z,6.37
2023-01-22T19:29:18.854Z,7.50
2023-01-22T19:31:48.381Z,8.17
2023-01-22T19:34:23.053Z,8.43
2023-01-22T19:36:54.415Z,9.07
2023-01-22T19:39:22.435Z,8.27
2023-01-22T19:41:49.404Z,8.03
2023-01-22T19:44:16.477Z,8.47
2023-01-22T19:46:43.500Z,10.60
2023-01-22T19:49:12.921Z,10.30
2023-01-22T19:51:39.897Z,10.80
2023-01-22T19:54:07.316Z,9.87
2023-01-22T19:56:36.435Z,9.00
2023-01-22T19:59:06.177Z,8.50
2023-01-22T20:01:35.143Z,10.83
2023-01-22T20:04:08.917Z,10.57
2023-01-22T20:06:36.196Z,10.67
2023-01-22T20:09:04.215Z,11.37
2023-01-22T20:11:31.730Z,11.30
2023-01-22T20:13:58.718Z,10.90
2023-01-22T20:16:28.321Z,9.47
2023-01-22T20:18:57.736Z,9.07
2023-01-22T20:21:26.823Z,9.67
2023-01-22T20:23:54.647Z,9.90
2023-01-22T20:26:22.275Z,9.53
2023-01-22T20:28:49.879Z,10.13
2023-01-22T20:31:20.111Z,8.53
2023-01-22T20:33:47.444Z,8.37
2023-01-22T20:36:17.491Z,8.60
2023-01-22T20:38:45.866Z,6.73
2023-01-22T20:41:14.145Z,8.37
2023-01-22T20:43:42.935Z,7.10
2023-01-22T20:46:21.649Z,7.07
2023-01-22T20:48:49.907Z,7.87
2023-01-22T20:51:23.246Z,6.70
2023-01-22T20:53:52.227Z,7.13
2023-01-22T20:56:22.988Z,7.40
2023-01-22T20:58:55.817Z,7.17
2023-01-22T21:01:23.418Z,7.10
2023-01-22T21:03:50.324Z,6.80
2023-01-22T21:06:19.219Z,6.83
2023-01-22T21:08:52.546Z,6.00
2023-01-22T21:11:20.770Z,6.13
2023-01-22T21:13:49.255Z,6.47
2023-01-22T21:16:19.805Z,5.27
2023-01-22T21:18:46.754Z,5.77
2023-01-22T21:21:20.822Z,5.80
2023-01-22T21:23:49.948Z,5.33
2023-01-22T21:26:25.091Z,6.80
2023-01-22T21:28:57.687Z,5.87
2023-01-22T21:31:25.795Z,5.30
2023-01-22T21:34:02.184Z,6.03
2023-01-22T21:36:32.155Z,5.97
2023-01-22T21:38:59.839Z,5.50
2023-01-22T21:41:27.452Z,5.27
2023-01-22T21:44:13.080Z,6.30
2023-01-22T21:46:43.100Z,5.70
2023-01-22T21:49:16.431Z,6.13
2023-01-22T21:52:15.720Z,6.13
2023-01-22T21:54:42.634Z,5.33
2023-01-22T21:57:15.088Z,5.70
2023-01-22T21:59:43.363Z,5.63
2023-01-22T22:02:16.051Z,5.80
2023-01-22T22:04:43.392Z,6.10
2023-01-22T22:07:13.094Z,5.50
2023-01-22T22:09:40.273Z,5.20
2023-01-22T22:12:07.419Z,5.93
2023-01-22T22:14:34.285Z,5.97
2023-01-22T22:17:01.267Z,7.17
2023-01-22T22:19:28.860Z,5.77
2023-01-22T22:21:55.886Z,7.73
2023-01-22T22:24:22.918Z,6.87
2023-01-22T22:26:49.957Z,7.30
2023-01-22T22:29:16.940Z,7.17
2023-01-22T22:31:44.035Z,6.30
2023-01-22T22:34:11.025Z,6.30
2023-01-22T22:36:37.973Z,5.87
2023-01-22T22:39:06.418Z,6.83
2023-01-22T22:41:35.918Z,6.43
2023-01-22T22:44:03.169Z,6.57
2023-01-22T22:46:33.226Z,5.40
2023-01-22T22:49:01.251Z,6.27
2023-01-22T22:51:34.055Z,5.93
2023-01-22T22:54:04.047Z,6.43
2023-01-22T22:56:31.419Z,5.97
2023-01-22T22:59:00.793Z,5.53
2023-01-22T23:01:30.119Z,5.47
2023-01-22T23:03:57.636Z,5.60
2023-01-22T23:06:30.669Z,7.13
2023-01-22T23:08:58.977Z,6.17
2023-01-22T23:11:32.161Z,5.00
2023-01-22T23:14:03.562Z,5.47
2023-01-22T23:16:33.652Z,8.13
2023-01-22T23:19:02.772Z,5.70
2023-01-22T23:21:29.952Z,5.67
2023-01-22T23:23:57.042Z,5.07
2023-01-22T23:26:29.926Z,5.97
2023-01-22T23:29:01.943Z,5.80
2023-01-22T23:31:31.057Z,6.00
2023-01-22T23:34:02.469Z,5.20
2023-01-22T23:36:30.479Z,8.33
2023-01-22T23:38:58.528Z,6.07
2023-01-22T23:41:25.466Z,5.40
2023-01-22T23:43:52.390Z,6.37
2023-01-22T23:46:25.234Z,6.43
2023-01-22T23:48:54.166Z,5.70
2023-01-22T23:51:21.964Z,6.17
2023-01-22T23:53:53.572Z,5.87
2023-01-22T23:56:25.147Z,6.87
2023-01-22T23:58:56.084Z,7.57
